Time;durP1;ratioP1;P1;durP2;ratioP2;P2;SDS_P1;SDS_P2;PMS_P1;PMS_P2;Temp;Humidity;BMP_temperature;BMP_pressure;BME280_temperature;BME280_humidity;BME280_pressure;Samples;Min_cycle;Max_cycle;Signal;HPM_P1;HPM_P2
2020/12/20 00:00:40;;;;;;;12.57;10.18;;;10.00;99.90;;;;;;4955039;28;20134;-77
2020/12/20 00:03:06;;;;;;;14.50;10.30;;;10.00;99.90;;;;;;4955240;29;20130;-78
2020/12/20 00:05:33;;;;;;;15.20;10.55;;;10.00;99.90;;;;;;4954359;28;20091;-79
2020/12/20 00:07:59;;;;;;;17.25;10.75;;;9.90;99.90;;;;;;4955317;29;20134;-77
2020/12/20 00:10:26;;;;;;;14.57;10.57;;;9.90;99.90;;;;;;4956183;28;20122;-78
2020/12/20 00:12:57;;;;;;;14.93;10.48;;;9.80;99.90;;;;;;4988462;23;20134;-79
2020/12/20 00:15:33;;;;;;;14.70;11.23;;;9.80;99.90;;;;;;4976170;28;20062;-79
2020/12/20 00:18:01;;;;;;;19.45;10.90;;;9.80;99.90;;;;;;4970261;28;20091;-79
2020/12/20 00:20:29;;;;;;;16.88;11.05;;;9.80;99.90;;;;;;4972169;28;20051;-78
2020/12/20 00:22:59;;;;;;;12.45;10.15;;;9.70;99.90;;;;;;4961141;28;20401;-80
2020/12/20 00:25:31;;;;;;;16.60;11.65;;;9.70;99.90;;;;;;4952511;28;20071;-80
2020/12/20 00:28:01;;;;;;;17.33;11.32;;;9.70;99.90;;;;;;4950361;28;20065;-79
2020/12/20 00:30:28;;;;;;;13.43;10.32;;;9.60;99.90;;;;;;4957396;28;20274;-80
2020/12/20 00:32:55;;;;;;;17.35;11.35;;;9.60;99.90;;;;;;4960168;28;20051;-79
2020/12/20 00:35:22;;;;;;;16.75;10.95;;;9.60;99.90;;;;;;4959260;28;20082;-79
2020/12/20 00:37:48;;;;;;;15.18;10.95;;;9.60;99.90;;;;;;4960266;28;20066;-80
2020/12/20 00:40:27;;;;;;;16.20;10.75;;;9.60;99.90;;;;;;4960464;28;20542;-79
2020/12/20 00:42:55;;;;;;;16.23;10.90;;;9.60;99.90;;;;;;4960262;28;20055;-80
2020/12/20 00:45:22;;;;;;;14.25;10.85;;;9.70;99.90;;;;;;4959451;28;20062;-80
2020/12/20 00:47:52;;;;;;;13.18;10.55;;;9.70;99.90;;;;;;4960046;28;20154;-80
2020/12/20 00:50:26;;;;;;;15.63;11.63;;;9.70;99.90;;;;;;4960303;28;20065;-79
2020/12/20 00:52:53;;;;;;;14.68;11.10;;;9.60;99.90;;;;;;4978320;23;20038;-79
2020/12/20 00:55:20;;;;;;;14.63;11.05;;;9.50;99.90;;;;;;4997037;28;20046;-80
2020/12/20 00:57:47;;;;;;;15.02;10.75;;;9.50;99.90;;;;;;4997412;28;20058;-78
2020/12/20 01:00:14;;;;;;;16.42;11.88;;;9.50;99.90;;;;;;4997298;28;20054;-78
2020/12/20 01:02:50;;;;;;;16.15;11.18;;;9.50;99.90;;;;;;4993245;28;20050;-79
2020/12/20 01:05:16;;;;;;;16.13;10.90;;;9.40;99.90;;;;;;4995897;23;20059;-79
2020/12/20 01:07:43;;;;;;;16.35;11.88;;;9.50;99.90;;;;;;4966149;28;20534;-78
2020/12/20 01:10:12;;;;;;;15.95;11.85;;;9.40;99.90;;;;;;4977124;28;20086;-79
2020/12/20 01:12:38;;;;;;;12.85;10.82;;;9.40;99.90;;;;;;4975488;28;20082;-80
2020/12/20 01:15:05;;;;;;;16.48;11.63;;;9.30;99.90;;;;;;4976466;28;20082;-78
2020/12/20 01:17:32;;;;;;;16.40;11.55;;;9.30;99.90;;;;;;4975832;28;20472;-77
2020/12/20 01:19:58;;;;;;;15.77;11.68;;;9.40;99.90;;;;;;4979873;28;20479;-78
2020/12/20 01:22:25;;;;;;;16.50;10.98;;;9.40;99.90;;;;;;4979157;28;20138;-79
2020/12/20 01:24:51;;;;;;;15.13;11.15;;;9.50;99.90;;;;;;4979505;28;20138;-77
2020/12/20 01:27:18;;;;;;;14.70;11.43;;;9.50;99.90;;;;;;4983626;28;20091;-77
2020/12/20 01:29:44;;;;;;;13.80;10.80;;;9.50;99.90;;;;;;4980445;28;20086;-79
2020/12/20 01:32:10;;;;;;;16.35;10.93;;;9.50;99.90;;;;;;4974012;28;20134;-78
2020/12/20 01:34:37;;;;;;;13.75;10.70;;;9.50;99.90;;;;;;4975607;28;20448;-79
2020/12/20 01:37:04;;;;;;;14.25;11.10;;;9.50;99.90;;;;;;4974397;28;20138;-79
2020/12/20 01:39:30;;;;;;;15.90;11.18;;;9.50;99.90;;;;;;4975727;28;20129;-79
2020/12/20 01:41:57;;;;;;;14.18;10.52;;;9.60;99.90;;;;;;4989565;28;20078;-79
2020/12/20 01:44:23;;;;;;;14.18;11.20;;;9.60;99.90;;;;;;4994175;28;20035;-78
2020/12/20 01:46:51;;;;;;;15.68;10.73;;;9.60;99.90;;;;;;4993282;28;20046;-78
2020/12/20 01:49:18;;;;;;;14.45;10.98;;;9.60;99.90;;;;;;4991789;28;20099;-78
2020/12/20 01:51:47;;;;;;;13.85;11.38;;;9.60;99.90;;;;;;4991467;28;20062;-79
2020/12/20 01:54:13;;;;;;;16.70;11.18;;;9.60;99.90;;;;;;4990186;28;20089;-78
2020/12/20 01:56:40;;;;;;;15.70;11.20;;;9.70;99.90;;;;;;4985293;28;20086;-78
2020/12/20 01:59:06;;;;;;;16.52;11.07;;;9.70;99.90;;;;;;4976609;28;20110;-79
2020/12/20 02:01:33;;;;;;;12.45;10.52;;;9.80;99.90;;;;;;4974896;28;20137;-78
2020/12/20 02:03:59;;;;;;;16.88;11.23;;;9.80;99.90;;;;;;4973911;28;20130;-78
2020/12/20 02:06:26;;;;;;;15.85;11.20;;;9.90;99.90;;;;;;4973912;28;20490;-78
2020/12/20 02:08:53;;;;;;;14.40;10.80;;;9.90;99.90;;;;;;4974766;28;20139;-78
2020/12/20 02:11:19;;;;;;;12.95;10.40;;;9.90;99.90;;;;;;4973792;28;20129;-79
2020/12/20 02:13:48;;;;;;;15.10;10.88;;;9.90;99.90;;;;;;4975820;28;20050;-81
2020/12/20 02:16:15;;;;;;;13.93;10.25;;;10.00;99.90;;;;;;4980044;28;20054;-79
2020/12/20 02:18:42;;;;;;;14.18;10.85;;;10.00;99.90;;;;;;4980500;28;20133;-78
2020/12/20 02:21:14;;;;;;;15.35;10.80;;;10.00;99.90;;;;;;4980843;28;20130;-79
2020/12/20 02:23:41;;;;;;;14.32;11.25;;;10.00;99.90;;;;;;4980823;28;20297;-79
2020/12/20 02:26:08;;;;;;;15.30;10.75;;;10.00;99.90;;;;;;4981247;28;20074;-78
2020/12/20 02:28:34;;;;;;;15.82;10.57;;;10.00;99.90;;;;;;4981567;28;20085;-78
2020/12/20 02:31:01;;;;;;;14.25;10.82;;;9.90;99.90;;;;;;4980661;28;20086;-78
2020/12/20 02:33:27;;;;;;;15.38;11.07;;;9.90;99.90;;;;;;4982490;28;20217;-80
2020/12/20 02:35:53;;;;;;;15.18;10.80;;;9.90;99.90;;;;;;4982720;28;20086;-80
2020/12/20 02:38:21;;;;;;;16.05;10.75;;;9.80;99.90;;;;;;4982479;28;20129;-79
2020/12/20 02:40:47;;;;;;;16.70;10.57;;;9.80;99.90;;;;;;4982057;28;20097;-78
2020/12/20 02:43:13;;;;;;;14.65;10.68;;;9.90;99.90;;;;;;4988290;28;20085;-78
2020/12/20 02:45:40;;;;;;;15.20;10.68;;;9.80;99.90;;;;;;4982755;28;20093;-79
2020/12/20 02:48:06;;;;;;;14.45;11.02;;;9.80;99.90;;;;;;4979385;28;20086;-78
2020/12/20 02:50:33;;;;;;;15.30;11.48;;;9.70;99.90;;;;;;4979061;28;20479;-79
2020/12/20 02:52:59;;;;;;;14.13;11.60;;;9.80;99.90;;;;;;4978586;28;20092;-79
2020/12/20 02:55:27;;;;;;;17.30;11.88;;;9.70;99.90;;;;;;4980002;28;20093;-77
2020/12/20 02:57:53;;;;;;;16.88;11.85;;;9.80;99.90;;;;;;4980081;28;20139;-77
2020/12/20 03:00:22;;;;;;;14.52;11.55;;;9.70;99.90;;;;;;4979851;28;20047;-78
2020/12/20 03:02:48;;;;;;;14.90;11.35;;;9.70;99.90;;;;;;4980041;28;20129;-77
2020/12/20 03:05:17;;;;;;;14.68;11.63;;;9.70;99.90;;;;;;4979422;28;20433;-79
2020/12/20 03:07:44;;;;;;;15.68;11.90;;;9.60;99.90;;;;;;4980065;28;20054;-78
2020/12/20 03:10:10;;;;;;;17.50;11.60;;;9.60;99.90;;;;;;4980943;28;20057;-78
2020/12/20 03:12:37;;;;;;;16.95;12.88;;;9.60;99.90;;;;;;4980795;28;20134;-78
2020/12/20 03:15:05;;;;;;;14.63;11.88;;;9.60;99.90;;;;;;4980363;28;20129;-77
2020/12/20 03:17:32;;;;;;;14.68;11.43;;;9.60;99.90;;;;;;4980505;28;20096;-77
2020/12/20 03:19:58;;;;;;;14.30;11.70;;;9.60;99.90;;;;;;4981867;28;20104;-78
2020/12/20 03:22:25;;;;;;;15.90;12.30;;;9.60;99.90;;;;;;4980320;28;20133;-79
2020/12/20 03:24:51;;;;;;;14.52;11.88;;;9.60;99.90;;;;;;4978427;28;20129;-78
2020/12/20 03:27:17;;;;;;;16.63;12.25;;;9.60;99.90;;;;;;4975905;28;20090;-79
2020/12/20 03:29:44;;;;;;;14.25;11.65;;;9.60;99.90;;;;;;4975660;28;20133;-78
2020/12/20 03:32:11;;;;;;;15.43;11.85;;;9.60;99.90;;;;;;4975072;28;20134;-78
2020/12/20 03:34:37;;;;;;;14.93;11.85;;;9.60;99.90;;;;;;4975456;28;20579;-79
2020/12/20 03:37:04;;;;;;;15.73;11.70;;;9.60;99.90;;;;;;4975637;28;20082;-79
2020/12/20 03:39:30;;;;;;;17.83;12.13;;;9.60;99.90;;;;;;4975719;28;20082;-79
2020/12/20 03:41:57;;;;;;;19.98;12.55;;;9.70;99.90;;;;;;4975397;28;20043;-79
2020/12/20 03:44:23;;;;;;;18.00;11.93;;;9.70;99.90;;;;;;4977320;28;20534;-79
2020/12/20 03:46:51;;;;;;;17.45;11.85;;;9.70;99.90;;;;;;4977586;28;20089;-78
2020/12/20 03:49:17;;;;;;;17.27;12.32;;;9.60;99.90;;;;;;4977899;28;20598;-80
2020/12/20 03:51:43;;;;;;;17.05;11.77;;;9.60;99.90;;;;;;4978039;28;20130;-81
2020/12/20 03:54:10;;;;;;;16.48;11.95;;;9.60;99.90;;;;;;4980385;28;20081;-79
2020/12/20 03:56:36;;;;;;;18.10;12.40;;;9.60;99.90;;;;;;4994323;28;20050;-82
2020/12/20 03:59:03;;;;;;;15.52;12.27;;;9.60;99.90;;;;;;4995193;28;20051;-80
2020/12/20 04:01:29;;;;;;;17.63;12.40;;;9.60;99.90;;;;;;4992729;28;20047;-79
2020/12/20 04:03:57;;;;;;;18.00;12.98;;;9.60;99.90;;;;;;4977319;28;20146;-78
2020/12/20 04:06:23;;;;;;;14.90;11.65;;;9.60;99.90;;;;;;4975287;28;20133;-79
2020/12/20 04:08:49;;;;;;;16.30;11.55;;;9.60;99.90;;;;;;4975655;28;20138;-78
2020/12/20 04:11:16;;;;;;;18.33;12.38;;;9.60;99.90;;;;;;4975129;28;20082;-78
2020/12/20 04:13:42;;;;;;;14.45;11.60;;;9.60;99.90;;;;;;4975168;28;20137;-78
2020/12/20 04:16:10;;;;;;;14.85;11.07;;;9.50;99.90;;;;;;4974705;28;20579;-79
2020/12/20 04:18:37;;;;;;;15.45;11.43;;;9.50;99.90;;;;;;4976285;28;20396;-79
2020/12/20 04:21:05;;;;;;;20.60;12.45;;;9.50;99.90;;;;;;4978314;28;20090;-78
2020/12/20 04:23:31;;;;;;;13.52;11.32;;;9.50;99.90;;;;;;4977574;28;20531;-77
2020/12/20 04:25:58;;;;;;;19.40;12.43;;;9.50;99.90;;;;;;4974723;28;20134;-79
2020/12/20 04:28:24;;;;;;;17.77;12.15;;;9.50;99.90;;;;;;4975152;28;20057;-79
2020/12/20 04:30:51;;;;;;;14.57;12.15;;;9.40;99.90;;;;;;4977468;28;20050;-79
2020/12/20 04:33:21;;;;;;;14.73;11.95;;;9.40;99.90;;;;;;4980452;28;20658;-79
2020/12/20 04:35:47;;;;;;;16.70;12.07;;;9.50;99.90;;;;;;4978474;28;20201;-77
2020/12/20 04:38:14;;;;;;;13.95;11.20;;;9.50;99.90;;;;;;4973527;28;20073;-77
2020/12/20 04:40:41;;;;;;;19.63;12.40;;;9.50;99.90;;;;;;4975106;28;20093;-77
2020/12/20 04:43:09;;;;;;;16.83;11.68;;;9.60;99.90;;;;;;4975178;28;20082;-79
2020/12/20 04:45:36;;;;;;;14.45;10.77;;;9.70;99.90;;;;;;4976120;28;20081;-79
2020/12/20 04:48:03;;;;;;;15.55;11.40;;;9.70;99.90;;;;;;4976858;28;20110;-79
2020/12/20 04:50:30;;;;;;;16.45;11.68;;;9.70;99.90;;;;;;4975412;28;20082;-79
2020/12/20 04:52:58;;;;;;;18.02;11.38;;;9.60;99.90;;;;;;4976777;28;20577;-79
2020/12/20 04:55:26;;;;;;;17.15;11.68;;;9.60;99.90;;;;;;4977388;28;20086;-79
2020/12/20 04:57:54;;;;;;;17.58;11.68;;;9.50;99.90;;;;;;4975638;28;20146;-79
2020/12/20 05:00:21;;;;;;;17.60;11.07;;;9.40;99.90;;;;;;4974081;28;20138;-79
2020/12/20 05:02:48;;;;;;;17.23;12.00;;;9.40;99.90;;;;;;4956247;28;20161;-79
2020/12/20 05:05:15;;;;;;;18.65;12.57;;;9.40;99.90;;;;;;4962851;28;20078;-78
2020/12/20 05:07:45;;;;;;;15.18;12.77;;;9.40;99.90;;;;;;4960525;28;20047;-78
2020/12/20 05:10:11;;;;;;;15.68;11.93;;;9.40;99.90;;;;;;4954014;28;20129;-78
2020/12/20 05:12:40;;;;;;;15.05;11.60;;;9.40;99.90;;;;;;4953761;28;20047;-78
2020/12/20 05:15:20;;;;;;;15.40;12.27;;;9.40;99.90;;;;;;4954145;28;20468;-78
2020/12/20 05:17:47;;;;;;;16.30;12.10;;;9.40;99.90;;;;;;4953805;28;20083;-78
2020/12/20 05:20:25;;;;;;;17.92;14.07;;;9.40;99.90;;;;;;4955344;29;20560;-79
2020/12/20 05:22:53;;;;;;;18.48;11.68;;;9.40;99.90;;;;;;4955658;28;20062;-79
2020/12/20 05:25:21;;;;;;;16.77;11.82;;;9.50;99.90;;;;;;4956054;28;20096;-78
2020/12/20 05:27:48;;;;;;;19.48;13.02;;;9.40;99.90;;;;;;4955381;28;20373;-78
2020/12/20 05:30:16;;;;;;;18.02;11.90;;;9.40;99.90;;;;;;4953445;28;20515;-78
2020/12/20 05:32:44;;;;;;;16.15;11.77;;;9.40;99.90;;;;;;4953269;28;20133;-78
2020/12/20 05:35:12;;;;;;;17.02;12.75;;;9.30;99.90;;;;;;4953295;28;20090;-78
2020/12/20 05:37:39;;;;;;;15.30;11.68;;;9.30;99.90;;;;;;4953089;28;20138;-76
2020/12/20 05:40:08;;;;;;;21.98;13.80;;;9.40;99.90;;;;;;4953549;28;20095;-78
2020/12/20 05:42:35;;;;;;;16.10;12.88;;;9.30;99.90;;;;;;4952813;28;20130;-78
2020/12/20 05:45:08;;;;;;;18.10;13.32;;;9.40;99.90;;;;;;4953548;28;20191;-79
2020/12/20 05:47:34;;;;;;;18.58;13.00;;;9.30;99.90;;;;;;4953561;28;20134;-78
2020/12/20 05:50:01;;;;;;;17.48;12.88;;;9.30;99.90;;;;;;4953306;28;20138;-78
2020/12/20 05:52:27;;;;;;;19.08;14.88;;;9.40;99.90;;;;;;4952962;28;20476;-78
2020/12/20 05:54:54;;;;;;;15.77;12.68;;;9.40;99.90;;;;;;4953300;28;20453;-78
2020/12/20 05:57:21;;;;;;;18.88;11.90;;;9.30;99.90;;;;;;4952680;28;20134;-78
2020/12/20 05:59:49;;;;;;;17.58;12.40;;;9.40;99.90;;;;;;4953573;28;20481;-78
2020/12/20 06:02:17;;;;;;;15.02;12.23;;;9.40;99.90;;;;;;4953107;28;20461;-78
2020/12/20 06:04:44;;;;;;;18.83;14.38;;;9.40;99.90;;;;;;4953219;28;20134;-79
2020/12/20 06:07:13;;;;;;;19.23;13.70;;;9.30;99.90;;;;;;4953877;28;20563;-79
2020/12/20 06:09:49;;;;;;;20.20;13.45;;;9.30;99.90;;;;;;4954443;28;20138;-78
2020/12/20 06:12:19;;;;;;;18.13;12.98;;;9.30;99.90;;;;;;4953250;28;20582;-78
2020/12/20 06:14:46;;;;;;;17.23;12.68;;;9.30;99.90;;;;;;4953134;28;20051;-78
2020/12/20 06:17:18;;;;;;;16.33;13.40;;;9.30;99.90;;;;;;4952426;29;20138;-78
2020/12/20 06:19:57;;;;;;;16.73;12.95;;;9.40;99.90;;;;;;4953109;28;20134;-78
2020/12/20 06:22:28;;;;;;;20.15;14.00;;;9.30;99.90;;;;;;4956002;28;20378;-77
2020/12/20 06:24:56;;;;;;;21.70;17.58;;;9.20;99.90;;;;;;4959096;28;20086;-79
2020/12/20 06:27:26;;;;;;;19.63;15.45;;;9.20;99.90;;;;;;4952324;28;20178;-78
2020/12/20 06:29:54;;;;;;;17.77;13.20;;;9.30;99.90;;;;;;4953110;28;20460;-78
2020/12/20 06:32:35;;;;;;;23.13;14.85;;;9.30;99.90;;;;;;4952502;28;20048;-78
2020/12/20 06:35:11;;;;;;;23.08;16.48;;;9.40;99.90;;;;;;4952938;28;20141;-78
2020/12/20 06:37:41;;;;;;;18.75;13.30;;;9.40;99.90;;;;;;4952221;28;20142;-80
2020/12/20 06:40:08;;;;;;;18.20;13.55;;;9.30;99.90;;;;;;4952757;28;20134;-78
2020/12/20 06:42:37;;;;;;;18.70;13.73;;;9.40;99.90;;;;;;4952261;28;20126;-78
2020/12/20 06:45:18;;;;;;;19.70;14.07;;;9.30;99.90;;;;;;4952535;28;20055;-77
2020/12/20 06:47:47;;;;;;;22.15;13.85;;;9.40;99.90;;;;;;4952007;28;20047;-78
2020/12/20 06:50:14;;;;;;;19.30;13.43;;;9.30;99.90;;;;;;4952480;28;20083;-79
2020/12/20 06:52:49;;;;;;;18.60;13.77;;;9.30;99.90;;;;;;4952243;28;20134;-77
2020/12/20 06:55:19;;;;;;;29.25;18.77;;;9.30;99.90;;;;;;4953938;28;20086;-79
2020/12/20 06:58:08;;;;;;;22.80;15.27;;;9.30;99.90;;;;;;4953219;28;20087;-77
2020/12/20 07:00:42;;;;;;;20.38;14.15;;;9.30;99.90;;;;;;4955967;28;20143;-79
2020/12/20 07:03:10;;;;;;;20.55;14.63;;;9.30;99.90;;;;;;4957164;28;20400;-79
2020/12/20 07:05:44;;;;;;;18.67;13.93;;;9.30;99.90;;;;;;4990742;23;20110;-81
2020/12/20 07:08:20;;;;;;;20.35;13.85;;;9.30;99.90;;;;;;4998562;28;20058;-80
2020/12/20 07:10:48;;;;;;;19.70;14.40;;;9.20;99.90;;;;;;4998795;28;20507;-79
2020/12/20 07:13:20;;;;;;;20.50;14.68;;;9.20;99.90;;;;;;4996357;28;20153;-79
2020/12/20 07:15:54;;;;;;;21.95;14.02;;;9.10;99.90;;;;;;5004252;23;20513;-79
2020/12/20 07:19:03;;;;;;;22.10;18.65;;;9.10;99.90;;;;;;4961420;28;20503;-79
2020/12/20 07:22:02;;;;;;;21.45;16.23;;;9.10;99.90;;;;;;4954376;28;20062;-80
2020/12/20 07:24:33;;;;;;;21.35;16.35;;;9.10;99.90;;;;;;4920438;29;20079;-78
2020/12/20 07:27:01;;;;;;;25.40;19.13;;;9.10;99.90;;;;;;4924820;29;20056;-80
2020/12/20 07:29:32;;;;;;;20.85;15.32;;;9.10;99.90;;;;;;4937888;28;20180;-80
2020/12/20 07:32:00;;;;;;;24.92;16.65;;;9.00;99.90;;;;;;4957731;29;20147;-82
2020/12/20 07:34:27;;;;;;;23.83;16.02;;;9.00;99.90;;;;;;4957695;29;20190;-80
2020/12/20 07:36:55;;;;;;;19.10;15.23;;;8.90;99.90;;;;;;4956876;28;20142;-80
2020/12/20 07:39:21;;;;;;;31.80;19.60;;;8.90;99.90;;;;;;4957409;28;20047;-79
2020/12/20 07:41:48;;;;;;;31.15;23.58;;;8.80;99.90;;;;;;4956478;28;20047;-80
2020/12/20 07:44:14;;;;;;;28.88;22.98;;;8.80;99.90;;;;;;4958784;29;20142;-80
2020/12/20 07:46:41;;;;;;;25.77;18.17;;;8.80;99.90;;;;;;4958034;28;20136;-79
2020/12/20 07:49:08;;;;;;;25.38;16.38;;;8.80;99.90;;;;;;4958363;28;20142;-80
2020/12/20 07:51:36;;;;;;;25.20;16.25;;;8.70;99.90;;;;;;4963660;29;20078;-81
2020/12/20 07:54:08;;;;;;;22.55;17.20;;;8.70;99.90;;;;;;4964758;29;20051;-81
2020/12/20 07:56:37;;;;;;;23.77;16.45;;;8.70;99.90;;;;;;4962745;29;20055;-80
2020/12/20 07:59:10;;;;;;;21.73;16.23;;;8.70;99.90;;;;;;4961906;29;20471;-81
2020/12/20 08:01:45;;;;;;;20.80;15.98;;;8.70;99.90;;;;;;4962337;28;20573;-81
2020/12/20 08:04:29;;;;;;;23.90;16.38;;;8.70;99.90;;;;;;4961566;28;20178;-80
2020/12/20 08:07:09;;;;;;;26.88;16.10;;;8.70;99.90;;;;;;4961782;29;20405;-80
2020/12/20 08:09:35;;;;;;;24.80;16.65;;;8.80;99.90;;;;;;4962056;29;20415;-80
2020/12/20 08:12:02;;;;;;;22.33;16.05;;;8.80;99.90;;;;;;4959377;28;20082;-80
2020/12/20 08:14:28;;;;;;;20.05;16.10;;;8.90;99.90;;;;;;4960145;29;20055;-80
2020/12/20 08:16:54;;;;;;;22.42;16.38;;;8.90;99.90;;;;;;4959757;28;20138;-81
2020/12/20 08:19:22;;;;;;;23.10;16.55;;;8.90;99.90;;;;;;4959384;29;20054;-81
2020/12/20 08:22:01;;;;;;;23.67;15.52;;;9.00;99.90;;;;;;4961028;28;20106;-81
2020/12/20 08:24:30;;;;;;;22.83;16.95;;;9.00;99.90;;;;;;4965847;29;20214;-80
2020/12/20 08:26:58;;;;;;;24.10;17.70;;;9.00;99.90;;;;;;4959815;29;20130;-81
2020/12/20 08:29:24;;;;;;;21.45;17.15;;;9.10;99.90;;;;;;4964433;28;20428;-81
2020/12/20 08:31:51;;;;;;;27.13;17.63;;;9.10;99.90;;;;;;4959195;29;20097;-80
2020/12/20 08:34:23;;;;;;;22.67;16.10;;;9.10;99.90;;;;;;4959655;28;20463;-79
2020/12/20 08:36:51;;;;;;;20.80;16.55;;;9.10;99.90;;;;;;4957738;29;20043;-79
2020/12/20 08:39:21;;;;;;;22.65;16.73;;;9.10;99.90;;;;;;4959243;29;20054;-79
2020/12/20 08:42:00;;;;;;;24.65;17.17;;;9.10;99.90;;;;;;4956417;29;20051;-78
2020/12/20 08:44:27;;;;;;;21.25;16.65;;;9.10;99.90;;;;;;4956433;29;20080;-80
2020/12/20 08:47:04;;;;;;;23.83;16.98;;;9.10;99.90;;;;;;4955826;29;20051;-79
2020/12/20 08:49:30;;;;;;;24.48;16.90;;;9.20;99.90;;;;;;4957149;29;20091;-79
2020/12/20 08:52:06;;;;;;;20.77;16.50;;;9.20;99.90;;;;;;4956638;28;20130;-79
2020/12/20 08:54:32;;;;;;;23.75;17.30;;;9.30;99.90;;;;;;4956250;29;20222;-80
2020/12/20 08:57:02;;;;;;;21.77;16.42;;;9.30;99.90;;;;;;4956666;28;20107;-80
2020/12/20 08:59:30;;;;;;;21.02;16.55;;;9.40;99.90;;;;;;4957624;29;20148;-80
2020/12/20 09:01:58;;;;;;;21.33;16.13;;;9.40;99.90;;;;;;4956322;28;20214;-80
2020/12/20 09:04:25;;;;;;;21.13;16.00;;;9.40;99.90;;;;;;4956165;29;20065;-82
2020/12/20 09:07:04;;;;;;;22.77;17.08;;;9.40;99.90;;;;;;4955944;29;20187;-79
2020/12/20 09:09:31;;;;;;;24.73;16.83;;;9.40;99.90;;;;;;4955787;28;20236;-78
2020/12/20 09:12:14;;;;;;;24.95;17.65;;;9.50;99.90;;;;;;4955220;29;20546;-80
2020/12/20 09:14:41;;;;;;;21.60;16.83;;;9.40;99.90;;;;;;4955951;28;20138;-80
2020/12/20 09:17:08;;;;;;;24.42;16.70;;;9.50;99.90;;;;;;4958864;28;20177;-80
2020/12/20 09:19:34;;;;;;;23.63;16.85;;;9.50;99.90;;;;;;4957942;28;20138;-80
2020/12/20 09:22:00;;;;;;;22.35;16.20;;;9.50;99.90;;;;;;4954568;28;20475;-78
2020/12/20 09:24:29;;;;;;;20.15;16.38;;;9.50;99.90;;;;;;4954509;28;20138;-79
2020/12/20 09:27:04;;;;;;;21.48;16.15;;;9.50;99.90;;;;;;4954614;29;20050;-80
2020/12/20 09:29:49;;;;;;;23.17;17.05;;;9.50;99.90;;;;;;4958066;29;20115;-80
2020/12/20 09:32:15;;;;;;;23.67;16.05;;;9.50;99.90;;;;;;4958333;29;20106;-80
2020/12/20 09:34:42;;;;;;;20.42;16.33;;;9.60;99.90;;;;;;4958415;29;20126;-79
2020/12/20 09:37:08;;;;;;;24.45;16.95;;;9.60;99.90;;;;;;4960825;29;20156;-80
2020/12/20 09:39:54;;;;;;;19.95;14.60;;;9.70;99.90;;;;;;4961017;29;20047;-81
2020/12/20 09:42:21;;;;;;;22.40;15.32;;;9.70;99.90;;;;;;4956036;29;20049;-80
2020/12/20 09:44:48;;;;;;;21.95;16.45;;;9.80;99.90;;;;;;4958567;28;20135;-79
2020/12/20 09:47:14;;;;;;;21.02;15.85;;;9.80;99.90;;;;;;4956050;28;20514;-79
2020/12/20 09:49:45;;;;;;;23.40;15.93;;;9.80;99.90;;;;;;4959689;28;20074;-82
2020/12/20 09:52:12;;;;;;;17.83;14.95;;;9.90;99.90;;;;;;4958704;28;20047;-81
2020/12/20 09:54:38;;;;;;;19.50;14.10;;;9.90;99.90;;;;;;4959814;29;20488;-82
2020/12/20 09:57:07;;;;;;;17.75;13.18;;;10.00;99.90;;;;;;4959418;28;20537;-81
2020/12/20 09:59:34;;;;;;;17.05;13.70;;;10.00;99.90;;;;;;4956841;28;20111;-82
2020/12/20 10:02:01;;;;;;;18.55;13.70;;;10.10;99.90;;;;;;4958142;28;20134;-82
2020/12/20 10:04:27;;;;;;;23.13;14.13;;;10.10;99.90;;;;;;4959068;28;20083;-82
2020/12/20 10:06:53;;;;;;;19.77;13.35;;;10.20;99.90;;;;;;4957863;29;20055;-80
2020/12/20 10:09:20;;;;;;;18.15;13.18;;;10.30;99.90;;;;;;4957737;29;20134;-82
2020/12/20 10:11:46;;;;;;;21.00;13.55;;;10.40;99.90;;;;;;4958624;28;20047;-82
2020/12/20 10:14:12;;;;;;;21.90;13.45;;;10.50;99.90;;;;;;4958903;28;20491;-81
2020/12/20 10:16:39;;;;;;;22.55;14.82;;;10.50;99.90;;;;;;4955762;28;20083;-81
2020/12/20 10:19:06;;;;;;;19.30;14.27;;;10.50;99.90;;;;;;4958387;29;20062;-81
2020/12/20 10:21:32;;;;;;;19.27;14.07;;;10.50;99.90;;;;;;4958254;28;20142;-82
2020/12/20 10:23:59;;;;;;;17.85;13.65;;;10.50;99.90;;;;;;4959844;28;20107;-83
2020/12/20 10:26:25;;;;;;;19.15;14.45;;;10.60;99.90;;;;;;4962635;28;20138;-82
2020/12/20 10:28:52;;;;;;;20.98;12.98;;;10.60;99.90;;;;;;4976109;28;20055;-82
2020/12/20 10:31:19;;;;;;;17.90;13.43;;;10.70;99.90;;;;;;4963530;28;20211;-82
2020/12/20 10:33:47;;;;;;;17.50;12.98;;;10.70;99.90;;;;;;4957963;28;20591;-82
2020/12/20 10:36:15;;;;;;;16.25;12.73;;;10.70;99.90;;;;;;4963146;28;20048;-82
2020/12/20 10:38:44;;;;;;;18.20;13.00;;;10.80;99.90;;;;;;4960116;29;20110;-83
2020/12/20 10:41:10;;;;;;;17.90;12.75;;;10.80;99.90;;;;;;4955599;28;20142;-78
2020/12/20 10:43:37;;;;;;;17.67;12.02;;;10.70;99.90;;;;;;4960409;28;20536;-79
2020/12/20 10:46:07;;;;;;;16.08;12.18;;;10.70;99.90;;;;;;4961358;29;20059;-81
2020/12/20 10:48:33;;;;;;;14.32;11.85;;;10.80;99.90;;;;;;4962175;29;20163;-80
2020/12/20 10:50:59;;;;;;;16.75;12.38;;;10.80;99.90;;;;;;4961783;28;20114;-80
2020/12/20 10:53:29;;;;;;;19.63;11.73;;;10.90;99.90;;;;;;4959011;28;20605;-80
2020/12/20 10:55:56;;;;;;;15.23;10.77;;;10.90;99.90;;;;;;4971765;28;20135;-82
2020/12/20 10:58:23;;;;;;;20.45;12.38;;;10.90;99.90;;;;;;4963867;28;20071;-82
2020/12/20 11:00:52;;;;;;;16.83;12.90;;;10.80;99.90;;;;;;4972914;28;20146;-82
2020/12/20 11:03:18;;;;;;;19.25;12.18;;;10.80;99.90;;;;;;4964123;28;20107;-81
2020/12/20 11:05:48;;;;;;;16.35;11.70;;;10.90;99.90;;;;;;4960827;28;20103;-81
2020/12/20 11:08:17;;;;;;;16.70;11.93;;;10.90;99.90;;;;;;4963682;28;20114;-81
2020/12/20 11:10:47;;;;;;;18.42;11.05;;;10.90;99.90;;;;;;4950087;28;20052;-80
2020/12/20 11:13:14;;;;;;;15.85;11.45;;;11.00;99.90;;;;;;4950289;29;20124;-82
2020/12/20 11:15:40;;;;;;;19.48;10.77;;;11.00;99.90;;;;;;4962712;28;20138;-81
2020/12/20 11:18:06;;;;;;;16.50;10.63;;;11.00;99.90;;;;;;4962983;28;20062;-81
2020/12/20 11:20:36;;;;;;;20.58;10.48;;;11.00;99.90;;;;;;4963148;28;20176;-81
2020/12/20 11:23:04;;;;;;;14.00;10.23;;;11.10;99.90;;;;;;4961813;28;20135;-82
2020/12/20 11:25:31;;;;;;;17.73;9.70;;;11.10;99.90;;;;;;4963971;29;20059;-81
2020/12/20 11:27:58;;;;;;;18.33;10.30;;;11.10;99.90;;;;;;4963042;29;20150;-81
2020/12/20 11:30:25;;;;;;;16.02;10.32;;;11.10;99.90;;;;;;4963982;29;20123;-83
2020/12/20 11:32:51;;;;;;;20.75;10.15;;;11.20;99.90;;;;;;4964330;28;20051;-83
2020/12/20 11:35:17;;;;;;;16.70;10.57;;;11.20;99.90;;;;;;4962927;29;20085;-81
2020/12/20 11:37:44;;;;;;;18.02;10.55;;;11.30;99.90;;;;;;4961249;29;20237;-82
2020/12/20 11:40:11;;;;;;;15.30;10.23;;;11.30;99.90;;;;;;4956012;28;20075;-81
2020/12/20 11:42:37;;;;;;;17.35;10.63;;;11.30;99.90;;;;;;4980711;28;20578;-81
2020/12/20 11:45:05;;;;;;;16.90;10.90;;;11.30;99.90;;;;;;4977606;28;20134;-81
2020/12/20 11:47:31;;;;;;;17.08;10.23;;;11.30;99.90;;;;;;4970099;28;20047;-82
2020/12/20 11:49:58;;;;;;;20.15;11.10;;;11.30;99.90;;;;;;4959820;28;20106;-84
2020/12/20 11:52:28;;;;;;;16.75;10.30;;;11.30;99.90;;;;;;4961515;28;20055;-83
2020/12/20 11:54:54;;;;;;;18.25;11.07;;;11.30;99.90;;;;;;4963800;29;20047;-83
2020/12/20 11:57:21;;;;;;;18.15;11.95;;;11.30;99.90;;;;;;4963143;28;20132;-82
2020/12/20 11:59:47;;;;;;;17.10;11.20;;;11.30;99.90;;;;;;4961019;29;20089;-82
2020/12/20 12:02:14;;;;;;;16.35;11.18;;;11.20;99.90;;;;;;4962272;28;20089;-82
2020/12/20 12:04:41;;;;;;;17.33;11.95;;;11.20;99.90;;;;;;4968018;28;20078;-82
2020/12/20 12:07:07;;;;;;;17.10;11.38;;;11.10;99.90;;;;;;4964787;28;20051;-83
2020/12/20 12:09:36;;;;;;;18.92;12.57;;;11.10;99.90;;;;;;4969218;28;20071;-82
2020/12/20 12:12:03;;;;;;;16.40;12.05;;;11.10;99.90;;;;;;4965614;29;20055;-81
2020/12/20 12:14:29;;;;;;;15.63;11.60;;;11.10;99.90;;;;;;4964954;29;20055;-82
2020/12/20 12:16:56;;;;;;;17.30;11.57;;;11.10;99.90;;;;;;4965712;28;20516;-84
2020/12/20 12:19:23;;;;;;;16.38;10.88;;;11.10;99.90;;;;;;4965854;29;20094;-81
2020/12/20 12:21:49;;;;;;;19.17;11.43;;;11.20;99.90;;;;;;4965365;29;20516;-82
2020/12/20 12:24:19;;;;;;;18.83;10.88;;;11.30;99.90;;;;;;4965777;28;20125;-80
2020/12/20 12:26:48;;;;;;;17.10;10.93;;;11.30;99.90;;;;;;4965634;28;20062;-81
2020/12/20 12:29:22;;;;;;;17.50;10.80;;;11.40;99.90;;;;;;4966084;28;20051;-81
2020/12/20 12:31:50;;;;;;;17.35;10.85;;;11.40;99.90;;;;;;4965635;29;20070;-81
2020/12/20 12:34:17;;;;;;;14.07;9.85;;;11.50;99.90;;;;;;4962487;29;20147;-79
2020/12/20 12:36:44;;;;;;;20.85;10.98;;;11.50;99.90;;;;;;4959782;29;20507;-79
2020/12/20 12:39:15;;;;;;;18.80;10.05;;;11.50;99.90;;;;;;4959232;28;20082;-78